createdAt,value
2023-08-24T00:01:13.582Z,100156.91
2023-08-24T00:06:18.274Z,100164.34
2023-08-24T00:11:21.612Z,100164.00
2023-08-24T00:16:24.889Z,100165.88
2023-08-24T00:21:30.717Z,100164.50
2023-08-24T00:26:34.057Z,100162.78
2023-08-24T00:31:37.427Z,100153.72
2023-08-24T00:36:42.262Z,100148.06
2023-08-24T00:41:47.033Z,100152.91
2023-08-24T00:46:50.419Z,100142.03
2023-08-24T00:51:55.114Z,100138.38
2023-08-24T00:56:58.597Z,100142.56
2023-08-24T01:02:02.788Z,100131.53
2023-08-24T01:07:08.207Z,100146.03
2023-08-24T01:12:20.371Z,100146.72
2023-08-24T01:17:28.854Z,100154.13
2023-08-24T01:22:40.302Z,100151.88
2023-08-24T01:27:46.213Z,100141.56
2023-08-24T01:32:49.622Z,100151.75
2023-08-24T01:37:53.236Z,100151.91
2023-08-24T01:43:05.218Z,100150.22
2023-08-24T01:48:09.506Z,100161.28
2023-08-24T01:53:13.982Z,100166.28
2023-08-24T01:58:18.785Z,100167.81
2023-08-24T02:03:22.106Z,100164.25
2023-08-24T02:08:26.092Z,100163.13
2023-08-24T02:13:30.593Z,100173.69
2023-08-24T02:18:33.603Z,100171.31
2023-08-24T02:23:36.861Z,100176.56
2023-08-24T02:28:41.572Z,100166.69
2023-08-24T02:33:44.866Z,100170.22
2023-08-24T02:38:49.090Z,100163.63
2023-08-24T02:43:53.861Z,100166.00
2023-08-24T02:48:57.200Z,100164.34
2023-08-24T02:54:00.390Z,100171.34
2023-08-24T02:59:05.074Z,100170.34
2023-08-24T03:04:08.294Z,100171.81
2023-08-24T03:09:11.625Z,100173.72
2023-08-24T03:14:16.297Z,100178.50
2023-08-24T03:19:20.268Z,100179.28
2023-08-24T03:24:23.420Z,100182.59
2023-08-24T03:29:28.173Z,100184.41
2023-08-24T03:34:32.702Z,100194.34
2023-08-24T03:39:35.997Z,100194.47
2023-08-24T03:44:41.433Z,100193.88
2023-08-24T03:49:45.863Z,100195.47
2023-08-24T03:54:49.266Z,100196.78
2023-08-24T03:59:53.944Z,100193.31
2023-08-24T04:04:57.213Z,100199.31
2023-08-24T04:10:00.645Z,100207.75
2023-08-24T04:15:06.517Z,100201.69
2023-08-24T04:20:11.748Z,100200.59
2023-08-24T04:25:15.051Z,100213.31
2023-08-24T04:30:19.815Z,100212.63
2023-08-24T04:35:27.777Z,100216.66
2023-08-24T04:40:31.047Z,100225.84
2023-08-24T04:45:35.698Z,100232.28
2023-08-24T04:50:38.963Z,100239.72
2023-08-24T04:55:42.268Z,100246.44
2023-08-24T05:00:47.193Z,100255.50
2023-08-24T05:05:50.629Z,100258.81
2023-08-24T05:10:54.363Z,100264.31
2023-08-24T05:15:59.046Z,100268.00
2023-08-24T05:21:02.409Z,100260.47
2023-08-24T05:26:06.645Z,100277.47
2023-08-24T05:31:12.296Z,100273.66
2023-08-24T05:36:15.628Z,100289.03
2023-08-24T05:41:19.055Z,100288.22
2023-08-24T05:46:23.746Z,100285.41
2023-08-24T05:51:27.022Z,100286.28
2023-08-24T05:56:30.284Z,100290.94
2023-08-24T06:01:35.060Z,100293.06
2023-08-24T06:06:38.751Z,100299.28
2023-08-24T06:11:42.325Z,100300.41
2023-08-24T06:16:47.029Z,100305.34
2023-08-24T06:21:50.343Z,100300.69
2023-08-24T06:26:53.612Z,100304.91
2023-08-24T06:31:58.276Z,100308.16
2023-08-24T06:37:04.864Z,100319.59
2023-08-24T06:42:08.397Z,100314.97
2023-08-24T06:47:13.186Z,100322.75
2023-08-24T06:52:16.494Z,100323.19
2023-08-24T06:57:19.739Z,100330.41
2023-08-24T07:02:24.624Z,100332.69
2023-08-24T07:07:27.987Z,100324.88
2023-08-24T07:12:31.403Z,100322.56
2023-08-24T07:17:36.360Z,100330.66
2023-08-24T07:22:39.810Z,100327.66
2023-08-24T07:27:43.842Z,100333.66
2023-08-24T07:32:48.566Z,100330.00
2023-08-24T07:37:52.559Z,100324.34
2023-08-24T07:42:58.040Z,100318.56
2023-08-24T07:48:03.015Z,100334.50
2023-08-24T07:53:07.052Z,100351.94
2023-08-24T07:58:10.209Z,100359.69
2023-08-24T08:03:15.389Z,100352.88
2023-08-24T08:08:19.285Z,100339.75
2023-08-24T08:13:22.583Z,100346.56
2023-08-24T08:18:27.243Z,100353.28
2023-08-24T08:23:30.508Z,100349.59
2023-08-24T08:28:36.031Z,100354.06
2023-08-24T08:33:40.703Z,100360.94
2023-08-24T08:38:44.078Z,100349.84
2023-08-24T08:43:47.413Z,100347.59
2023-08-24T08:48:55.131Z,100341.53
2023-08-24T08:53:59.000Z,100346.88
2023-08-24T08:59:03.932Z,100349.47
2023-08-24T09:04:09.081Z,100348.44
2023-08-24T09:09:12.814Z,100356.44
2023-08-24T09:14:17.051Z,100362.59
2023-08-24T09:19:21.776Z,100361.84
2023-08-24T09:24:33.265Z,100367.13
2023-08-24T09:29:39.666Z,100376.03
2023-08-24T09:34:44.608Z,100366.34
2023-08-24T09:39:48.839Z,100376.69
2023-08-24T09:44:52.243Z,100370.00
2023-08-24T09:49:57.608Z,100377.63
2023-08-24T09:55:05.778Z,100377.28
2023-08-24T10:00:12.817Z,100377.53
2023-08-24T10:05:36.402Z,100382.97
2023-08-24T10:10:45.215Z,100383.19
2023-08-24T10:15:50.491Z,100374.53
2023-08-24T10:20:55.474Z,100378.31
2023-08-24T10:25:59.084Z,100371.03
2023-08-24T10:31:04.820Z,100372.56
2023-08-24T10:36:09.932Z,100369.19
2023-08-24T10:41:16.471Z,100370.00
2023-08-24T10:46:21.824Z,100375.84
2023-08-24T10:51:28.798Z,100377.19
2023-08-24T10:56:39.659Z,100370.19
2023-08-24T11:01:43.902Z,100375.44
2023-08-24T11:06:56.767Z,100363.31
2023-08-24T11:12:02.221Z,100375.50
2023-08-24T11:17:24.065Z,100366.88
2023-08-24T11:22:29.457Z,100357.19
2023-08-24T11:27:35.954Z,100353.81
2023-08-24T11:32:39.219Z,100352.38
2023-08-24T11:37:44.081Z,100351.72
2023-08-24T11:42:47.317Z,100360.38
2023-08-24T11:47:51.458Z,100354.03
2023-08-24T11:52:57.022Z,100352.09
2023-08-24T11:58:01.338Z,100351.88
2023-08-24T12:03:04.889Z,100351.94
2023-08-24T12:08:09.522Z,100359.50
2023-08-24T12:13:15.123Z,100352.94
2023-08-24T12:18:18.466Z,100355.38
2023-08-24T12:23:23.405Z,100360.44
2023-08-24T12:28:26.615Z,100357.38
2023-08-24T12:33:32.288Z,100352.19
2023-08-24T12:38:37.244Z,100342.47
2023-08-24T12:43:41.535Z,100354.97
2023-08-24T12:48:45.765Z,100343.06
2023-08-24T12:53:50.404Z,100342.75
2023-08-24T12:58:53.910Z,100346.47
2023-08-24T13:03:57.341Z,100349.28
2023-08-24T13:09:02.147Z,100344.94
2023-08-24T13:14:05.593Z,100336.69
2023-08-24T13:19:08.900Z,100334.47
2023-08-24T13:24:13.582Z,100333.41
2023-08-24T13:29:18.227Z,100326.09
2023-08-24T13:34:21.605Z,100331.63
2023-08-24T13:39:29.709Z,100337.47
2023-08-24T13:44:32.970Z,100329.34
2023-08-24T13:49:40.426Z,100333.50
2023-08-24T13:54:53.512Z,100325.03
2023-08-24T14:00:01.843Z,100328.84
2023-08-24T14:05:07.462Z,100325.06
2023-08-24T14:10:13.205Z,100316.19
2023-08-24T14:15:16.581Z,100313.72
2023-08-24T14:20:20.016Z,100296.31
2023-08-24T14:25:24.868Z,100293.78
2023-08-24T14:30:28.319Z,100303.28
2023-08-24T14:35:33.977Z,100296.53
2023-08-24T14:40:39.053Z,100301.38
2023-08-24T14:45:42.399Z,100290.41
2023-08-24T14:50:45.704Z,100283.69
2023-08-24T14:55:50.405Z,100282.69
2023-08-24T15:00:55.110Z,100289.38
2023-08-24T15:06:00.685Z,100280.56
2023-08-24T15:11:08.403Z,100278.22
2023-08-24T15:16:12.198Z,100267.53
2023-08-24T15:21:16.382Z,100270.03
2023-08-24T15:26:21.529Z,100266.03
2023-08-24T15:31:24.873Z,100259.78
2023-08-24T15:36:28.183Z,100264.34
2023-08-24T15:41:33.441Z,100270.56
2023-08-24T15:46:36.731Z,100269.91
2023-08-24T15:51:40.804Z,100274.13
2023-08-24T15:56:46.533Z,100287.50
2023-08-24T16:01:50.034Z,100284.09
2023-08-24T16:06:54.214Z,100291.88
2023-08-24T16:11:59.647Z,100291.63
2023-08-24T16:17:03.186Z,100292.44
2023-08-24T16:22:08.296Z,100281.06
2023-08-24T16:27:13.004Z,100284.09
2023-08-24T16:32:16.293Z,100283.78
2023-08-24T16:37:19.644Z,100288.34
2023-08-24T16:42:25.120Z,100284.34
2023-08-24T16:47:28.360Z,100288.69
2023-08-24T16:52:32.440Z,100283.44
2023-08-24T16:57:37.083Z,100289.16
2023-08-24T17:02:40.950Z,100274.31
2023-08-24T17:07:44.249Z,100285.78
2023-08-24T17:12:48.873Z,100294.22
2023-08-24T17:17:52.753Z,100301.69
2023-08-24T17:22:56.389Z,100306.38
2023-08-24T17:28:01.889Z,100306.38
2023-08-24T17:33:05.650Z,100310.34
2023-08-24T17:38:09.019Z,100307.56
2023-08-24T17:43:13.973Z,100306.31
2023-08-24T17:48:17.761Z,100300.78
2023-08-24T17:53:23.059Z,100298.16
2023-08-24T17:58:28.050Z,100304.41
2023-08-24T18:03:31.446Z,100304.97
2023-08-24T18:08:49.294Z,100307.97
2023-08-24T18:13:56.892Z,100309.38
2023-08-24T18:19:00.492Z,100317.81
2023-08-24T18:24:03.914Z,100336.34
2023-08-24T18:29:08.330Z,100328.91
2023-08-24T18:34:12.599Z,100346.25
2023-08-24T18:39:16.215Z,100348.53
2023-08-24T18:44:21.757Z,100353.44
2023-08-24T18:49:25.009Z,100364.09
2023-08-24T18:54:29.376Z,100368.38
2023-08-24T18:59:34.066Z,100378.38
2023-08-24T19:04:37.613Z,100382.56
2023-08-24T19:09:40.756Z,100390.69
2023-08-24T19:14:45.538Z,100401.84
2023-08-24T19:19:51.596Z,100397.25
2023-08-24T19:24:54.905Z,100399.38
2023-08-24T19:30:00.305Z,100406.28
2023-08-24T19:35:04.366Z,100418.59
2023-08-24T19:40:09.013Z,100427.66
2023-08-24T19:45:14.509Z,100428.66
2023-08-24T19:50:17.976Z,100427.06
2023-08-24T19:55:21.212Z,100443.34
2023-08-24T20:00:26.212Z,100448.81
2023-08-24T20:05:31.637Z,100466.59
2023-08-24T20:10:35.611Z,100469.81
2023-08-24T20:15:40.399Z,100466.63
2023-08-24T20:20:44.388Z,100465.91
2023-08-24T20:25:47.638Z,100473.03
2023-08-24T20:30:52.329Z,100466.31
2023-08-24T20:35:55.589Z,100477.41
2023-08-24T20:40:59.065Z,100472.03
2023-08-24T20:46:04.545Z,100481.28
2023-08-24T20:51:07.822Z,100475.63
2023-08-24T20:56:12.553Z,100478.94
2023-08-24T21:01:18.068Z,100475.13
2023-08-24T21:06:21.379Z,100474.69
2023-08-24T21:11:24.645Z,100482.78
2023-08-24T21:16:29.453Z,100487.41
2023-08-24T21:21:32.812Z,100494.38
2023-08-24T21:26:36.083Z,100503.03
2023-08-24T21:31:40.724Z,100491.34
2023-08-24T21:36:44.119Z,100495.13
2023-08-24T21:41:47.438Z,100499.19
2023-08-24T21:46:52.180Z,100495.91
2023-08-24T21:51:55.441Z,100492.00
2023-08-24T21:56:59.446Z,100490.47
2023-08-24T22:02:04.039Z,100502.19
2023-08-24T22:07:07.420Z,100499.91
2023-08-24T22:12:10.772Z,100515.94
2023-08-24T22:17:15.560Z,100522.78
2023-08-24T22:22:19.961Z,100514.03
2023-08-24T22:27:23.230Z,100512.63
2023-08-24T22:32:28.287Z,100511.91
2023-08-24T22:37:31.660Z,100508.06
2023-08-24T22:42:34.993Z,100496.41
2023-08-24T22:47:39.835Z,100506.19
2023-08-24T22:52:43.595Z,100505.97
2023-08-24T22:57:47.250Z,100506.56
2023-08-24T23:02:52.190Z,100513.31
2023-08-24T23:07:55.882Z,100508.91
2023-08-24T23:12:59.543Z,100508.19
2023-08-24T23:18:04.370Z,100512.00
2023-08-24T23:23:07.742Z,100512.44
2023-08-24T23:28:11.004Z,100509.59
2023-08-24T23:33:17.023Z,100510.53
2023-08-24T23:38:21.017Z,100509.09
2023-08-24T23:43:25.051Z,100495.38
2023-08-24T23:48:29.715Z,100496.94
2023-08-24T23:53:33.071Z,100491.00
2023-08-24T23:58:36.608Z,100500.88
